MOL Continuity — 3ESS2 — position and weather

sailwx.info

Track history (hours):
 
Tides and Currents Weather Stations Pressure Air Temp Water Temp Dewpoint Dewpoint Depression Visibility Wind Speed Wind Dir Waves Ship Positions

MOL Continuity

Last reported at 2017-Oct-14 08:20 UTC. Time now 2017-Oct-19 23:41 UTC.
Position N 01°16' E 104°13'.

Length 320 m; draft 11.7 m.

Type: Ship (hazmat cat A). MMSI: 370407000.

Date/timePositionNaut miles runAvg speedWind from/ knotsBaromVisibWave heightAir tempDewpointWater temp
2017-Oct-14 08:20N 01°16' E 104°13'2220.7
2017-Oct-14 07:15N 01°16' E 103°50'0 0.1
2017-Oct-14 06:37N 01°16' E 103°51'0 0.0
2017-Oct-14 06:24N 01°16' E 103°51'0 0.0
2017-Oct-14 04:54N 01°16' E 103°50'0 0.0
2017-Oct-14 04:12N 01°16' E 103°50'0 0.3
2017-Oct-14 03:58N 01°16' E 103°51'0 0.0
2017-Oct-14 03:30N 01°16' E 103°51'0 0.1
2017-Oct-14 02:51N 01°16' E 103°50'0 0.0
2017-Oct-14 02:24N 01°16' E 103°50'0 0.1
2017-Oct-14 01:42N 01°16' E 103°51'0 0.3
2017-Oct-14 01:28N 01°16' E 103°50'0 0.0
2017-Oct-14 00:47N 01°16' E 103°50'0 0.0
2017-Oct-14 00:04N 01°16' E 103°50'0 0.0
2017-Oct-13 23:50N 01°16' E 103°50'1815.0
2017-Oct-13 22:39N 01°16' E 104°08'311.8
2017-Oct-13 22:23N 01°15' E 104°05'511.2
2017-Oct-13 21:59N 01°14' E 104°01'511.1
2017-Oct-13 21:31N 01°13' E 103°55'4 8.5
2017-Oct-13 21:01N 01°14' E 103°52'2 3.1
2017-Oct-13 20:31N 01°16' E 103°51'0 0.6
2017-Oct-13 20:00N 01°16' E 103°50'0 0.0
2017-Oct-13 19:30N 01°16' E 103°50'0 0.1
2017-Oct-13 19:00N 01°16' E 103°51'0 0.0
2017-Oct-13 18:30N 01°16' E 103°51'0 0.1
2017-Oct-13 18:00N 01°16' E 103°50'0 0.0
2017-Oct-13 17:30N 01°16' E 103°50'0 0.0
2017-Oct-13 17:01N 01°16' E 103°50'0 0.0
2017-Oct-13 16:30N 01°16' E 103°50'0 0.1
2017-Oct-13 16:00N 01°16' E 103°51'0 0.0
2017-Oct-13 15:30N 01°16' E 103°51'0 0.0
2017-Oct-13 15:01N 01°16' E 103°51'0 0.0
2017-Oct-13 14:30N 01°16' E 103°51'0 0.1
2017-Oct-13 14:00N 01°16' E 103°50'0 0.0
2017-Oct-13 13:30N 01°16' E 103°50'0 0.0
2017-Oct-13 12:54N 01°16' E 103°50'0 0.0
2017-Oct-13 12:30N 01°16' E 103°50'0 0.0
2017-Oct-13 12:00N 01°16' E 103°50'0 0.1
2017-Oct-13 11:30N 01°16' E 103°51'1928.2
2017-Oct-13 10:50N 01°17' E 104°09'1939.6
2017-Oct-13 10:21N 01°16' E 103°50'0 0.0
2017-Oct-13 10:01N 01°16' E 103°50'0 0.1
2017-Oct-13 09:30N 01°16' E 103°51'0 0.1
2017-Oct-13 08:57N 01°16' E 103°50'0 0.0
2017-Oct-13 08:30N 01°16' E 103°50'0 0.1
2017-Oct-13 08:01N 01°16' E 103°51'0 0.1
2017-Oct-13 07:30N 01°16' E 103°50'0 0.0
2017-Oct-13 07:00N 01°16' E 103°50'0 0.0
2017-Oct-13 06:30N 01°16' E 103°50'0 0.0
2017-Oct-13 05:54N 01°16' E 103°50'0 0.0
2017-Oct-13 05:30N 01°16' E 103°50'0 0.0
2017-Oct-13 04:54N 01°16' E 103°50'0 0.0
2017-Oct-13 04:30N 01°16' E 103°50'0 0.0
2017-Oct-13 04:00N 01°16' E 103°50'0 0.0
2017-Oct-13 03:30N 01°16' E 103°50'0 0.0
2017-Oct-13 03:00N 01°16' E 103°50'0 0.0
2017-Oct-13 02:30N 01°16' E 103°50'0 0.0
2017-Oct-13 02:00N 01°16' E 103°50'0 0.0
2017-Oct-13 01:30N 01°16' E 103°50'1 2.5
2017-Oct-13 01:00N 01°15' E 103°51'4 7.1
2017-Oct-13 00:30N 01°14' E 103°55'3 5.1
2017-Oct-13 00:00N 01°15' E 103°57'510.3
2017-Oct-12 23:30N 01°16' E 104°02'710.7
2017-Oct-12 22:49N 01°17' E 104°10'  
2017-Oct-10 00:44N 22°19' E 114°07'0 0.0
2017-Oct-09 03:39N 22°19' E 114°07'25113.3
2017-Oct-08 08:43N 23°50' E 118°22'415.5
2017-Oct-08 08:29N 23°52' E 118°25'915.8
2017-Oct-08 07:54N 23°58' E 118°33'616.0
2017-Oct-08 07:30N 24°02' E 118°38'1116.1
2017-Oct-08 06:49N 24°09' E 118°48'616.0
2017-Oct-08 06:25N 24°13' E 118°53'  
2017-Oct-05 14:15N 34°49' E 139°37'521.7
2017-Oct-05 14:00N 34°54' E 139°39'1020.9
2017-Oct-05 13:30N 35°04' E 139°43'714.8
2017-Oct-05 13:00N 35°11' E 139°45'611.2
2017-Oct-05 12:30N 35°16' E 139°46'612.9
2017-Oct-05 12:00N 35°22' E 139°42'714.6
2017-Oct-05 11:31N 35°28' E 139°48'612.1
2017-Oct-05 11:01N 35°34' E 139°50'4 7.8
2017-Oct-05 10:30N 35°36' E 139°46'0 0.5
2017-Oct-05 09:54N 35°36' E 139°46'0 0.0
2017-Oct-05 09:30N 35°36' E 139°46'0 0.0
2017-Oct-05 09:00N 35°36' E 139°46'0 0.0
2017-Oct-05 08:30N 35°36' E 139°46'0 0.0
2017-Oct-05 08:00N 35°36' E 139°46'0 0.0
2017-Oct-05 07:30N 35°36' E 139°46'0 0.0
2017-Oct-05 07:00N 35°36' E 139°46'0 0.0
2017-Oct-05 06:21N 35°36' E 139°46'0 0.0
2017-Oct-05 05:15N 35°36' E 139°46'0 0.1
2017-Oct-05 04:48N 35°36' E 139°46'0 0.0
2017-Oct-05 04:30N 35°36' E 139°46'0 0.0
2017-Oct-05 03:51N 35°36' E 139°46'0 0.0
2017-Oct-05 03:27N 35°36' E 139°46'0 0.0
2017-Oct-05 02:57N 35°36' E 139°46'0 0.0
2017-Oct-05 02:30N 35°36' E 139°46'0 0.0
2017-Oct-05 01:57N 35°36' E 139°46'0 0.0
2017-Oct-05 01:27N 35°36' E 139°46'0 0.0
2017-Oct-05 00:57N 35°36' E 139°46'0 0.0
2017-Oct-05 00:27N 35°36' E 139°46'0 0.0
2017-Oct-05 00:00N 35°36' E 139°46'0 0.0
2017-Oct-04 23:30N 35°36' E 139°46'0 0.0
2017-Oct-04 23:00N 35°36' E 139°46'1 1.2
2017-Oct-04 22:30N 35°36' E 139°46'4 8.0
2017-Oct-04 22:00N 35°33' E 139°50'5 9.9
2017-Oct-04 21:31N 35°28' E 139°51'713.8
2017-Oct-04 21:00N 35°23' E 139°46'611.1
2017-Oct-04 20:30N 35°18' E 139°45'611.7
2017-Oct-04 20:01N 35°12' E 139°47'5 9.0
2017-Oct-04 19:30N 35°07' E 139°47'4 8.0
2017-Oct-04 19:00N 35°04' E 139°45'4 8.7
2017-Oct-04 18:30N 34°60' E 139°42'4 8.8
2017-Oct-04 18:00N 34°56' E 139°41'5 9.2
2017-Oct-04 17:28N 34°51' E 139°45'3715.8
2017-Oct-04 15:06N 35°04' E 140°28'  
Track history (hours):
 
Tides and Currents Weather Stations Pressure Air Temp Water Temp Dewpoint Dewpoint Depression Visibility Wind Speed Wind Dir Waves Ship Positions

MOL Continuity

Last reported at 2017-Oct-14 08:20 UTC. Time now 2017-Oct-19 23:41 UTC.
Position N 01°16' E 104°13'.

Length 320 m; draft 11.7 m.

Type: Ship (hazmat cat A). MMSI: 370407000.

Date/timePositionNaut miles runAvg speedWind from/ knotsBaromVisibWave heightAir tempDewpointWater temp
2017-Oct-14 08:20N 01°16' E 104°13'2220.7
2017-Oct-14 07:15N 01°16' E 103°50'0 0.1
2017-Oct-14 06:37N 01°16' E 103°51'0 0.0
2017-Oct-14 06:24N 01°16' E 103°51'0 0.0
2017-Oct-14 04:54N 01°16' E 103°50'0 0.0
2017-Oct-14 04:12N 01°16' E 103°50'0 0.3
2017-Oct-14 03:58N 01°16' E 103°51'0 0.0
2017-Oct-14 03:30N 01°16' E 103°51'0 0.1
2017-Oct-14 02:51N 01°16' E 103°50'0 0.0
2017-Oct-14 02:24N 01°16' E 103°50'0 0.1
2017-Oct-14 01:42N 01°16' E 103°51'0 0.3
2017-Oct-14 01:28N 01°16' E 103°50'0 0.0
2017-Oct-14 00:47N 01°16' E 103°50'0 0.0
2017-Oct-14 00:04N 01°16' E 103°50'0 0.0
2017-Oct-13 23:50N 01°16' E 103°50'1815.0
2017-Oct-13 22:39N 01°16' E 104°08'311.8
2017-Oct-13 22:23N 01°15' E 104°05'511.2
2017-Oct-13 21:59N 01°14' E 104°01'511.1
2017-Oct-13 21:31N 01°13' E 103°55'4 8.5
2017-Oct-13 21:01N 01°14' E 103°52'2 3.1
2017-Oct-13 20:31N 01°16' E 103°51'0 0.6
2017-Oct-13 20:00N 01°16' E 103°50'0 0.0
2017-Oct-13 19:30N 01°16' E 103°50'0 0.1
2017-Oct-13 19:00N 01°16' E 103°51'0 0.0
2017-Oct-13 18:30N 01°16' E 103°51'0 0.1
2017-Oct-13 18:00N 01°16' E 103°50'0 0.0
2017-Oct-13 17:30N 01°16' E 103°50'0 0.0
2017-Oct-13 17:01N 01°16' E 103°50'0 0.0
2017-Oct-13 16:30N 01°16' E 103°50'0 0.1
2017-Oct-13 16:00N 01°16' E 103°51'0 0.0
2017-Oct-13 15:30N 01°16' E 103°51'0 0.0
2017-Oct-13 15:01N 01°16' E 103°51'0 0.0
2017-Oct-13 14:30N 01°16' E 103°51'0 0.1
2017-Oct-13 14:00N 01°16' E 103°50'0 0.0
2017-Oct-13 13:30N 01°16' E 103°50'0 0.0
2017-Oct-13 12:54N 01°16' E 103°50'0 0.0
2017-Oct-13 12:30N 01°16' E 103°50'0 0.0
2017-Oct-13 12:00N 01°16' E 103°50'0 0.1
2017-Oct-13 11:30N 01°16' E 103°51'1928.2
2017-Oct-13 10:50N 01°17' E 104°09'1939.6
2017-Oct-13 10:21N 01°16' E 103°50'0 0.0
2017-Oct-13 10:01N 01°16' E 103°50'0 0.1
2017-Oct-13 09:30N 01°16' E 103°51'0 0.1
2017-Oct-13 08:57N 01°16' E 103°50'0 0.0
2017-Oct-13 08:30N 01°16' E 103°50'0 0.1
2017-Oct-13 08:01N 01°16' E 103°51'0 0.1
2017-Oct-13 07:30N 01°16' E 103°50'0 0.0
2017-Oct-13 07:00N 01°16' E 103°50'0 0.0
2017-Oct-13 06:30N 01°16' E 103°50'0 0.0
2017-Oct-13 05:54N 01°16' E 103°50'0 0.0
2017-Oct-13 05:30N 01°16' E 103°50'0 0.0
2017-Oct-13 04:54N 01°16' E 103°50'0 0.0
2017-Oct-13 04:30N 01°16' E 103°50'0 0.0
2017-Oct-13 04:00N 01°16' E 103°50'0 0.0
2017-Oct-13 03:30N 01°16' E 103°50'0 0.0
2017-Oct-13 03:00N 01°16' E 103°50'0 0.0
2017-Oct-13 02:30N 01°16' E 103°50'0 0.0
2017-Oct-13 02:00N 01°16' E 103°50'0 0.0
2017-Oct-13 01:30N 01°16' E 103°50'1 2.5
2017-Oct-13 01:00N 01°15' E 103°51'4 7.1
2017-Oct-13 00:30N 01°14' E 103°55'3 5.1
2017-Oct-13 00:00N 01°15' E 103°57'510.3
2017-Oct-12 23:30N 01°16' E 104°02'710.7
2017-Oct-12 22:49N 01°17' E 104°10'  
2017-Oct-10 00:44N 22°19' E 114°07'0 0.0
2017-Oct-09 03:39N 22°19' E 114°07'25113.3
2017-Oct-08 08:43N 23°50' E 118°22'415.5
2017-Oct-08 08:29N 23°52' E 118°25'915.8
2017-Oct-08 07:54N 23°58' E 118°33'616.0
2017-Oct-08 07:30N 24°02' E 118°38'1116.1
2017-Oct-08 06:49N 24°09' E 118°48'616.0
2017-Oct-08 06:25N 24°13' E 118°53'  
2017-Oct-05 14:15N 34°49' E 139°37'521.7
2017-Oct-05 14:00N 34°54' E 139°39'1020.9
2017-Oct-05 13:30N 35°04' E 139°43'714.8
2017-Oct-05 13:00N 35°11' E 139°45'611.2
2017-Oct-05 12:30N 35°16' E 139°46'612.9
2017-Oct-05 12:00N 35°22' E 139°42'714.6
2017-Oct-05 11:31N 35°28' E 139°48'612.1
2017-Oct-05 11:01N 35°34' E 139°50'4 7.8
2017-Oct-05 10:30N 35°36' E 139°46'0 0.5
2017-Oct-05 09:54N 35°36' E 139°46'0 0.0
2017-Oct-05 09:30N 35°36' E 139°46'0 0.0
2017-Oct-05 09:00N 35°36' E 139°46'0 0.0
2017-Oct-05 08:30N 35°36' E 139°46'0 0.0
2017-Oct-05 08:00N 35°36' E 139°46'0 0.0
2017-Oct-05 07:30N 35°36' E 139°46'0 0.0
2017-Oct-05 07:00N 35°36' E 139°46'0 0.0
2017-Oct-05 06:21N 35°36' E 139°46'0 0.0
2017-Oct-05 05:15N 35°36' E 139°46'0 0.1
2017-Oct-05 04:48N 35°36' E 139°46'0 0.0
2017-Oct-05 04:30N 35°36' E 139°46'0 0.0
2017-Oct-05 03:51N 35°36' E 139°46'0 0.0
2017-Oct-05 03:27N 35°36' E 139°46'0 0.0
2017-Oct-05 02:57N 35°36' E 139°46'0 0.0
2017-Oct-05 02:30N 35°36' E 139°46'0 0.0
2017-Oct-05 01:57N 35°36' E 139°46'0 0.0
2017-Oct-05 01:27N 35°36' E 139°46'0 0.0
2017-Oct-05 00:57N 35°36' E 139°46'0 0.0
2017-Oct-05 00:27N 35°36' E 139°46'0 0.0
2017-Oct-05 00:00N 35°36' E 139°46'0 0.0
2017-Oct-04 23:30N 35°36' E 139°46'0 0.0
2017-Oct-04 23:00N 35°36' E 139°46'1 1.2
2017-Oct-04 22:30N 35°36' E 139°46'4 8.0
2017-Oct-04 22:00N 35°33' E 139°50'5 9.9
2017-Oct-04 21:31N 35°28' E 139°51'713.8
2017-Oct-04 21:00N 35°23' E 139°46'611.1
2017-Oct-04 20:30N 35°18' E 139°45'611.7
2017-Oct-04 20:01N 35°12' E 139°47'5 9.0
2017-Oct-04 19:30N 35°07' E 139°47'4 8.0
2017-Oct-04 19:00N 35°04' E 139°45'4 8.7
2017-Oct-04 18:30N 34°60' E 139°42'4 8.8
2017-Oct-04 18:00N 34°56' E 139°41'5 9.2
2017-Oct-04 17:28N 34°51' E 139°45'3715.8
2017-Oct-04 15:06N 35°04' E 140°28'  

Dump ship's entire track history